Time;durP1;ratioP1;P1;durP2;ratioP2;P2;SDS_P1;SDS_P2;PMS_P1;PMS_P2;Temp;Humidity;BMP_temperature;BMP_pressure;BME280_temperature;BME280_humidity;BME280_pressure;Samples;Min_cycle;Max_cycle;Signal;HPM_P1;HPM_P2
2021/07/26 00:02:26;;;;;;;4.27;3.87;;;20.30;81.30;;;;;;5106486;28;20499;-83
2021/07/26 00:04:53;;;;;;;5.23;4.73;;;20.20;82.00;;;;;;5111371;28;20459;-83
2021/07/26 00:07:20;;;;;;;4.37;3.97;;;20.20;82.70;;;;;;5107267;28;20551;-84
2021/07/26 00:09:47;;;;;;;5.50;4.70;;;20.10;83.30;;;;;;5107665;28;20432;-82
2021/07/26 00:12:14;;;;;;;5.80;4.57;;;20.10;83.50;;;;;;5110551;28;20467;-84
2021/07/26 00:14:41;;;;;;;4.63;4.20;;;20.10;83.60;;;;;;5110289;28;20476;-84
2021/07/26 00:17:09;;;;;;;5.10;4.57;;;20.00;84.30;;;;;;5117895;28;20439;-83
2021/07/26 00:19:36;;;;;;;6.60;4.53;;;19.90;85.30;;;;;;5118101;28;20439;-82
2021/07/26 00:22:05;;;;;;;4.63;4.23;;;19.90;85.30;;;;;;5117278;28;20925;-82
2021/07/26 00:24:32;;;;;;;5.57;4.20;;;19.90;85.30;;;;;;5118121;28;20465;-82
2021/07/26 00:26:59;;;;;;;5.23;4.47;;;19.90;85.30;;;;;;5111389;28;20487;-83
2021/07/26 00:29:26;;;;;;;4.53;4.13;;;19.80;85.20;;;;;;5099769;28;20478;-84
2021/07/26 00:31:53;;;;;;;5.93;3.70;;;19.80;86.20;;;;;;5102620;28;20591;-84
2021/07/26 00:34:25;;;;;;;5.37;4.60;;;19.80;86.20;;;;;;5106056;28;20430;-83
2021/07/26 00:36:54;;;;;;;7.70;4.07;;;19.90;85.30;;;;;;5103940;28;20921;-84
2021/07/26 00:39:23;;;;;;;5.43;4.63;;;19.80;86.10;;;;;;5101113;28;20443;-84
2021/07/26 00:41:51;;;;;;;3.93;3.63;;;19.70;86.80;;;;;;5113227;28;20446;-84
2021/07/26 00:44:19;;;;;;;6.93;4.70;;;19.80;87.10;;;;;;5117023;28;20461;-84
2021/07/26 00:46:47;;;;;;;6.20;4.40;;;19.70;87.00;;;;;;5118181;28;20445;-82
2021/07/26 00:49:16;;;;;;;4.70;4.30;;;19.70;87.70;;;;;;5118113;28;20439;-83
2021/07/26 00:51:46;;;;;;;7.60;4.63;;;19.70;87.80;;;;;;5103010;28;20892;-84
2021/07/26 00:54:14;;;;;;;6.93;4.33;;;19.70;89.00;;;;;;5097427;28;20455;-84
2021/07/26 00:56:42;;;;;;;5.03;4.47;;;19.70;89.40;;;;;;5097806;28;20460;-84
2021/07/26 00:59:10;;;;;;;4.73;4.27;;;19.60;89.50;;;;;;5097661;28;20448;-84
2021/07/26 01:01:37;;;;;;;6.20;4.07;;;19.60;89.50;;;;;;5100252;28;20499;-83
2021/07/26 01:04:04;;;;;;;4.60;4.20;;;19.60;90.20;;;;;;5098028;28;20486;-83
2021/07/26 01:06:31;;;;;;;8.03;4.40;;;19.50;90.10;;;;;;5098193;28;20496;-84
2021/07/26 01:09:00;;;;;;;6.27;4.93;;;19.50;90.10;;;;;;5102979;28;20513;-83
2021/07/26 01:11:27;;;;;;;7.00;4.57;;;19.50;90.40;;;;;;5114510;28;20455;-83
2021/07/26 01:13:54;;;;;;;5.00;4.30;;;19.40;90.70;;;;;;5116532;28;20447;-83
2021/07/26 01:16:23;;;;;;;6.23;4.70;;;19.40;91.00;;;;;;5115803;28;20431;-83
2021/07/26 01:18:51;;;;;;;5.27;4.33;;;19.40;91.40;;;;;;5115230;28;20484;-84
2021/07/26 01:21:21;;;;;;;5.10;4.60;;;19.20;91.40;;;;;;5113119;28;20473;-84
2021/07/26 01:23:49;;;;;;;6.43;5.20;;;19.20;92.00;;;;;;5101113;28;20473;-84
2021/07/26 01:26:17;;;;;;;6.43;5.17;;;19.20;92.20;;;;;;5097277;28;20480;-83
2021/07/26 01:28:47;;;;;;;5.30;4.80;;;19.20;92.20;;;;;;5101980;28;20459;-82
2021/07/26 01:31:14;;;;;;;4.70;4.30;;;19.20;91.40;;;;;;5106678;28;20448;-82
2021/07/26 01:33:43;;;;;;;5.27;4.43;;;19.20;91.40;;;;;;5097778;28;20900;-82
2021/07/26 01:36:10;;;;;;;5.77;4.03;;;19.30;91.40;;;;;;5098525;28;20909;-83
2021/07/26 01:38:39;;;;;;;4.57;3.73;;;19.30;90.30;;;;;;5101047;28;20458;-83
2021/07/26 01:41:07;;;;;;;4.63;4.13;;;19.40;89.30;;;;;;5100144;28;20485;-84
2021/07/26 01:43:38;;;;;;;4.50;3.83;;;19.40;88.50;;;;;;5102622;28;20819;-84
2021/07/26 01:46:12;;;;;;;4.77;4.20;;;19.50;86.50;;;;;;5101578;28;20550;-83
2021/07/26 01:48:49;;;;;;;5.30;3.83;;;19.50;85.30;;;;;;5102750;28;20479;-83
2021/07/26 01:51:20;;;;;;;5.73;3.70;;;19.60;85.00;;;;;;5099427;28;20455;-85
2021/07/26 01:53:48;;;;;;;4.73;4.10;;;19.60;84.00;;;;;;5098995;28;20490;-86
2021/07/26 01:56:16;;;;;;;4.23;3.87;;;19.70;83.10;;;;;;5110246;28;20454;-84
2021/07/26 01:58:44;;;;;;;4.90;4.00;;;19.70;82.50;;;;;;5100216;28;20486;-83
2021/07/26 02:01:11;;;;;;;4.17;3.87;;;19.70;82.40;;;;;;5099469;28;20442;-83
2021/07/26 02:03:37;;;;;;;4.07;3.77;;;19.70;82.00;;;;;;5099480;28;20443;-83
2021/07/26 02:06:04;;;;;;;4.33;4.03;;;19.80;81.70;;;;;;5103923;28;20459;-83
2021/07/26 02:08:31;;;;;;;4.67;3.70;;;19.80;81.70;;;;;;5099719;28;20965;-83
2021/07/26 02:11:00;;;;;;;5.70;4.50;;;19.80;81.40;;;;;;5100258;28;20537;-82
2021/07/26 02:13:27;;;;;;;4.83;4.33;;;19.80;81.70;;;;;;5103336;28;20480;-83
2021/07/26 02:15:54;;;;;;;4.23;3.83;;;19.80;81.80;;;;;;5098661;28;20434;-84
2021/07/26 02:18:21;;;;;;;4.20;3.80;;;19.90;81.60;;;;;;5099285;28;20506;-84
2021/07/26 02:20:48;;;;;;;4.07;3.67;;;19.80;81.80;;;;;;5101142;28;20475;-83
2021/07/26 02:23:15;;;;;;;4.23;3.87;;;19.80;82.00;;;;;;5110183;28;20461;-83
2021/07/26 02:25:41;;;;;;;5.03;4.63;;;19.80;82.60;;;;;;5115756;28;20434;-83
2021/07/26 02:28:10;;;;;;;4.67;4.27;;;19.80;82.90;;;;;;5119205;28;20490;-83
2021/07/26 02:30:37;;;;;;;4.77;4.10;;;19.70;83.10;;;;;;5113925;28;20476;-84
2021/07/26 02:33:05;;;;;;;8.73;4.20;;;19.70;83.50;;;;;;5114469;28;20505;-83
2021/07/26 02:35:31;;;;;;;6.40;4.13;;;19.70;84.00;;;;;;5120480;28;20459;-82
2021/07/26 02:37:58;;;;;;;4.60;4.10;;;19.60;84.00;;;;;;5119961;28;20469;-82
2021/07/26 02:40:27;;;;;;;4.80;4.40;;;19.60;85.00;;;;;;5119759;28;20438;-83
2021/07/26 02:42:55;;;;;;;7.00;4.07;;;19.60;85.00;;;;;;5116228;28;20474;-82
2021/07/26 02:45:24;;;;;;;4.87;4.37;;;19.60;85.70;;;;;;5119798;28;20441;-83
2021/07/26 02:47:52;;;;;;;6.90;4.30;;;19.50;85.00;;;;;;5119620;28;20787;-83
2021/07/26 02:50:19;;;;;;;3.73;3.43;;;19.50;85.00;;;;;;5119600;28;20444;-82
2021/07/26 02:52:47;;;;;;;4.50;3.87;;;19.40;86.30;;;;;;5117788;28;20479;-83
2021/07/26 02:55:14;;;;;;;5.97;4.07;;;19.30;86.10;;;;;;5114547;28;20443;-81
2021/07/26 02:57:41;;;;;;;4.87;4.03;;;19.30;87.40;;;;;;5119576;28;20422;-83
2021/07/26 03:00:09;;;;;;;5.10;4.37;;;19.30;87.60;;;;;;5118060;28;21002;-83
2021/07/26 03:02:38;;;;;;;5.43;4.70;;;19.20;88.30;;;;;;5098389;28;20800;-83
2021/07/26 03:05:05;;;;;;;5.90;4.47;;;19.20;89.10;;;;;;5097193;28;20439;-83
2021/07/26 03:07:33;;;;;;;4.50;4.10;;;19.20;89.40;;;;;;5098474;28;20950;-83
2021/07/26 03:10:00;;;;;;;4.07;3.77;;;19.20;90.00;;;;;;5097956;28;20459;-83
2021/07/26 03:12:27;;;;;;;4.50;4.10;;;19.20;90.00;;;;;;5098310;28;20522;-84
2021/07/26 03:14:54;;;;;;;5.13;4.60;;;19.20;90.20;;;;;;5097546;28;20467;-83
2021/07/26 03:17:24;;;;;;;4.23;3.93;;;19.20;90.20;;;;;;5097406;28;20478;-84
2021/07/26 03:19:53;;;;;;;4.53;4.13;;;19.20;90.20;;;;;;5097795;28;20473;-84
2021/07/26 03:22:50;;;;;;;4.67;4.27;;;19.10;90.20;;;;;;5098059;28;20986;-84
2021/07/26 03:25:17;;;;;;;4.67;4.00;;;19.10;90.50;;;;;;5097356;28;20542;-84
2021/07/26 03:27:45;;;;;;;5.40;4.90;;;19.00;90.70;;;;;;5109839;28;20491;-83
2021/07/26 03:30:13;;;;;;;5.00;4.50;;;19.00;90.90;;;;;;5110520;28;20459;-83
2021/07/26 03:32:40;;;;;;;5.30;4.80;;;19.00;91.30;;;;;;5106827;28;20894;-83
2021/07/26 03:35:10;;;;;;;4.73;4.23;;;19.00;91.30;;;;;;5118180;28;20473;-83
2021/07/26 03:37:37;;;;;;;5.23;4.70;;;18.90;91.20;;;;;;5111689;28;20447;-83
2021/07/26 03:40:04;;;;;;;4.87;4.47;;;18.90;91.30;;;;;;5114594;28;20454;-84
2021/07/26 03:42:33;;;;;;;10.40;5.13;;;18.90;91.30;;;;;;5118333;28;20429;-83
2021/07/26 03:45:01;;;;;;;5.93;5.33;;;18.90;91.20;;;;;;5112128;28;20425;-83
2021/07/26 03:47:28;;;;;;;7.13;5.10;;;18.90;91.20;;;;;;5108058;28;20926;-84
2021/07/26 03:49:55;;;;;;;5.60;5.00;;;18.80;91.20;;;;;;5105627;28;20439;-83
2021/07/26 03:52:23;;;;;;;4.70;4.30;;;18.80;91.20;;;;;;5098199;28;20515;-84
2021/07/26 03:54:50;;;;;;;8.03;4.70;;;18.80;91.20;;;;;;5100589;28;20966;-84
2021/07/26 03:57:17;;;;;;;5.07;4.30;;;18.80;91.20;;;;;;5113601;28;20435;-83
2021/07/26 03:59:44;;;;;;;5.03;4.63;;;18.90;91.20;;;;;;5116461;28;20455;-83
2021/07/26 04:02:11;;;;;;;8.10;4.80;;;18.90;91.30;;;;;;5116443;28;20474;-83
2021/07/26 04:04:38;;;;;;;6.93;5.00;;;18.90;91.20;;;;;;5108967;28;20490;-83
2021/07/26 04:07:09;;;;;;;4.50;4.10;;;18.90;91.30;;;;;;5111271;28;20454;-83
2021/07/26 04:09:42;;;;;;;5.63;4.37;;;19.00;91.30;;;;;;5101575;28;20430;-83
2021/07/26 04:12:13;;;;;;;5.23;4.80;;;19.00;91.30;;;;;;5106395;28;20467;-83
2021/07/26 04:14:41;;;;;;;7.43;4.30;;;19.10;91.30;;;;;;5113074;28;20973;-83
2021/07/26 04:17:08;;;;;;;8.17;4.43;;;19.10;90.70;;;;;;5115635;28;20474;-82
2021/07/26 04:19:35;;;;;;;5.10;4.23;;;19.10;90.40;;;;;;5115779;28;20460;-83
2021/07/26 04:22:02;;;;;;;5.63;5.03;;;19.20;90.30;;;;;;5115346;28;20479;-83
2021/07/26 04:24:29;;;;;;;5.60;5.10;;;19.20;90.10;;;;;;5115108;28;20477;-84
2021/07/26 04:26:58;;;;;;;4.77;4.37;;;19.20;90.00;;;;;;5112988;28;20858;-83
2021/07/26 04:29:25;;;;;;;12.83;4.77;;;19.30;90.00;;;;;;5100734;28;20455;-84
2021/07/26 04:31:52;;;;;;;5.17;4.67;;;19.30;89.70;;;;;;5101870;28;20838;-84
2021/07/26 04:34:19;;;;;;;6.40;5.00;;;19.30;89.90;;;;;;5105715;28;20459;-83
2021/07/26 04:36:46;;;;;;;9.17;4.70;;;19.20;90.00;;;;;;5116131;28;21000;-83
2021/07/26 04:39:13;;;;;;;8.43;4.70;;;19.20;90.60;;;;;;5099829;28;20524;-84
2021/07/26 04:41:40;;;;;;;6.10;5.50;;;19.20;90.90;;;;;;5099482;28;20455;-83
2021/07/26 04:44:08;;;;;;;8.57;5.70;;;19.20;91.20;;;;;;5100193;28;20422;-83
2021/07/26 04:46:35;;;;;;;5.20;4.70;;;19.20;91.40;;;;;;5100470;28;20422;-83
2021/07/26 04:49:02;;;;;;;5.30;4.80;;;19.30;91.40;;;;;;5102665;28;20449;-83
2021/07/26 04:51:29;;;;;;;5.70;5.20;;;19.40;91.40;;;;;;5116805;28;20475;-83
2021/07/26 04:53:56;;;;;;;6.47;4.93;;;19.40;91.40;;;;;;5108007;28;20504;-82
2021/07/26 04:56:23;;;;;;;5.77;5.27;;;19.50;90.80;;;;;;5118059;28;20470;-83
2021/07/26 04:58:50;;;;;;;7.53;6.30;;;19.60;90.40;;;;;;5109409;28;20452;-83
2021/07/26 05:01:18;;;;;;;5.27;4.53;;;19.70;90.40;;;;;;5098125;28;20479;-83
2021/07/26 05:03:45;;;;;;;6.47;4.83;;;19.80;90.00;;;;;;5098718;28;20559;-83
2021/07/26 05:06:12;;;;;;;5.27;4.40;;;19.90;88.60;;;;;;5104396;28;20485;-83
2021/07/26 05:08:39;;;;;;;8.50;5.77;;;20.00;87.40;;;;;;5105442;28;20439;-83
2021/07/26 05:11:07;;;;;;;5.00;4.60;;;20.20;86.40;;;;;;5108126;28;20476;-82
2021/07/26 05:13:34;;;;;;;5.23;4.73;;;20.30;85.70;;;;;;5121041;28;20465;-82
2021/07/26 05:16:00;;;;;;;6.47;5.50;;;20.60;83.20;;;;;;5121140;28;20448;-83
2021/07/26 05:18:29;;;;;;;4.70;4.30;;;21.00;80.50;;;;;;5120855;28;20452;-85
2021/07/26 05:20:56;;;;;;;5.30;4.80;;;21.40;77.10;;;;;;5107220;28;20499;-83
2021/07/26 05:23:23;;;;;;;4.17;3.83;;;21.70;73.20;;;;;;5108700;28;20462;-84
2021/07/26 05:25:49;;;;;;;4.67;4.27;;;22.00;69.60;;;;;;5110849;28;20445;-84
2021/07/26 05:28:16;;;;;;;5.03;4.60;;;22.30;67.70;;;;;;5131958;22;20485;-82
2021/07/26 05:30:43;;;;;;;9.87;4.60;;;22.10;68.80;;;;;;5096967;28;20465;-80
2021/07/26 05:33:10;;;;;;;6.17;4.77;;;22.00;68.40;;;;;;5097330;28;20486;-80
2021/07/26 05:35:41;;;;;;;5.00;4.50;;;21.60;69.30;;;;;;5084957;28;20451;-79
2021/07/26 05:38:08;;;;;;;4.77;4.37;;;21.40;72.20;;;;;;5078939;28;20889;-79
2021/07/26 05:40:35;;;;;;;7.80;5.10;;;21.30;73.10;;;;;;5078483;28;20462;-80
2021/07/26 05:43:02;;;;;;;7.33;4.80;;;21.20;74.00;;;;;;5077596;28;20428;-79
2021/07/26 05:45:29;;;;;;;5.53;5.00;;;20.90;75.90;;;;;;5078199;28;20458;-79
2021/07/26 05:47:56;;;;;;;4.90;4.40;;;20.70;77.80;;;;;;5076450;28;20508;-79
2021/07/26 05:50:22;;;;;;;5.50;4.90;;;20.70;77.40;;;;;;5076927;28;20911;-79
2021/07/26 05:52:51;;;;;;;5.23;4.60;;;20.70;78.50;;;;;;5078328;28;20497;-81
2021/07/26 05:55:18;;;;;;;6.93;5.17;;;20.80;77.50;;;;;;5077821;28;20588;-80
2021/07/26 05:57:46;;;;;;;9.27;4.47;;;20.80;77.50;;;;;;5093655;28;20484;-80
2021/07/26 06:00:24;;;;;;;5.00;4.60;;;21.00;77.60;;;;;;5084359;28;20423;-79
2021/07/26 06:02:51;;;;;;;5.00;4.50;;;21.60;75.00;;;;;;5079942;28;20799;-78
2021/07/26 06:05:23;;;;;;;5.50;4.40;;;22.50;68.20;;;;;;5084108;28;20881;-79
2021/07/26 06:07:52;;;;;;;4.07;3.70;;;23.10;62.60;;;;;;5083646;28;20439;-78
2021/07/26 06:10:19;;;;;;;4.20;3.80;;;23.20;61.50;;;;;;5084911;28;20460;-79
2021/07/26 06:12:46;;;;;;;7.50;5.00;;;23.40;60.80;;;;;;5083883;28;20484;-79
2021/07/26 06:15:13;;;;;;;4.70;4.30;;;23.50;59.40;;;;;;5084387;28;20530;-79
2021/07/26 06:17:40;;;;;;;7.63;4.50;;;23.40;59.20;;;;;;5082445;28;20547;-80
2021/07/26 06:20:09;;;;;;;4.33;3.93;;;23.30;60.20;;;;;;5082684;28;20491;-79
2021/07/26 06:22:35;;;;;;;4.87;4.40;;;23.50;60.00;;;;;;5084950;28;20480;-81
2021/07/26 06:25:09;;;;;;;6.17;4.27;;;23.90;58.10;;;;;;5081099;28;20433;-79
2021/07/26 06:27:36;;;;;;;8.50;4.10;;;24.10;56.80;;;;;;5078937;28;20781;-78
2021/07/26 06:30:02;;;;;;;6.27;4.27;;;24.60;55.40;;;;;;5078326;28;20417;-78
2021/07/26 06:32:31;;;;;;;4.53;4.13;;;25.20;53.60;;;;;;5080070;28;20451;-78
2021/07/26 06:34:58;;;;;;;4.73;4.10;;;25.70;51.30;;;;;;5080805;28;20465;-80
2021/07/26 06:37:25;;;;;;;4.03;3.60;;;26.00;49.70;;;;;;5090347;28;20485;-79
2021/07/26 06:39:52;;;;;;;7.63;4.30;;;26.30;48.00;;;;;;5087997;28;20463;-78
2021/07/26 06:42:20;;;;;;;5.47;3.87;;;26.30;47.40;;;;;;5082205;28;20425;-79
2021/07/26 06:44:47;;;;;;;3.93;3.20;;;25.80;48.50;;;;;;5076875;28;20473;-79
2021/07/26 06:47:16;;;;;;;4.20;3.80;;;25.60;49.30;;;;;;5078836;28;20430;-80
2021/07/26 06:49:43;;;;;;;6.50;4.40;;;25.60;49.30;;;;;;5085835;28;20437;-81
2021/07/26 06:52:10;;;;;;;5.07;3.93;;;25.30;50.00;;;;;;5087712;28;20485;-80
2021/07/26 06:54:37;;;;;;;4.97;4.43;;;24.80;51.90;;;;;;5090138;28;20461;-80
2021/07/26 06:57:04;;;;;;;4.43;3.90;;;24.90;51.60;;;;;;5083279;28;20437;-80
2021/07/26 06:59:33;;;;;;;4.87;4.40;;;24.20;52.80;;;;;;5079954;28;20443;-79
2021/07/26 07:02:00;;;;;;;6.23;4.20;;;24.10;53.50;;;;;;5081227;28;20467;-81
2021/07/26 07:04:27;;;;;;;4.57;4.07;;;23.30;57.20;;;;;;5080280;28;20527;-80
2021/07/26 07:06:53;;;;;;;12.80;5.40;;;23.10;58.40;;;;;;5078500;28;20448;-79
2021/07/26 07:09:20;;;;;;;7.93;4.20;;;22.90;59.70;;;;;;5077291;28;20504;-80
2021/07/26 07:11:48;;;;;;;7.53;4.23;;;23.10;59.50;;;;;;5080122;28;20472;-79
2021/07/26 07:14:16;;;;;;;8.77;4.87;;;23.30;58.50;;;;;;5082421;28;20486;-80
2021/07/26 07:16:44;;;;;;;4.63;4.20;;;23.30;57.70;;;;;;5082013;28;20461;-80
2021/07/26 07:19:12;;;;;;;4.17;3.77;;;23.50;57.00;;;;;;5081937;28;20511;-79
2021/07/26 07:21:40;;;;;;;4.43;3.80;;;23.60;56.50;;;;;;5075989;28;20426;-78
2021/07/26 07:24:07;;;;;;;4.20;3.80;;;23.60;56.90;;;;;;5076420;28;20474;-79
2021/07/26 07:26:35;;;;;;;4.17;3.77;;;23.70;55.40;;;;;;5075991;28;20435;-80
2021/07/26 07:29:02;;;;;;;4.80;3.80;;;23.70;55.70;;;;;;5075879;28;20671;-79
2021/07/26 07:35:23;;;;;;;3.87;3.50;;;23.80;55.20;;;;;;5093208;28;20484;-81
2021/07/26 07:37:52;;;;;;;4.20;3.80;;;24.00;53.70;;;;;;5069998;28;20564;-80
2021/07/26 07:40:20;;;;;;;3.87;3.57;;;23.90;52.50;;;;;;5080502;28;20452;-81
2021/07/26 07:42:46;;;;;;;5.10;3.60;;;24.00;52.60;;;;;;5081636;28;20456;-80
2021/07/26 07:45:14;;;;;;;4.30;3.90;;;23.90;53.40;;;;;;5080976;28;20472;-82
2021/07/26 07:47:41;;;;;;;4.63;3.73;;;24.00;52.60;;;;;;5083721;28;20450;-81
2021/07/26 07:50:11;;;;;;;4.97;3.77;;;24.10;52.70;;;;;;5082296;28;20453;-80
2021/07/26 07:52:39;;;;;;;4.17;3.77;;;24.20;50.80;;;;;;5077655;28;20463;-79
2021/07/26 07:55:08;;;;;;;3.87;3.57;;;24.00;51.30;;;;;;5078643;28;20574;-80
2021/07/26 07:57:36;;;;;;;4.97;3.87;;;23.80;51.80;;;;;;5080431;28;20448;-80
2021/07/26 08:00:04;;;;;;;3.67;3.37;;;24.00;48.10;;;;;;5082353;28;20533;-80
2021/07/26 08:02:31;;;;;;;4.80;3.63;;;24.20;48.80;;;;;;5082822;28;20454;-79
2021/07/26 08:04:58;;;;;;;5.43;4.70;;;24.50;47.60;;;;;;5084882;28;20432;-79
2021/07/26 08:07:25;;;;;;;4.20;3.90;;;24.60;46.50;;;;;;5086654;28;20456;-80
2021/07/26 08:09:52;;;;;;;3.87;3.57;;;24.90;46.90;;;;;;5088315;28;20484;-79
2021/07/26 08:12:20;;;;;;;4.23;3.60;;;24.90;46.50;;;;;;5084490;28;20479;-81
2021/07/26 08:14:47;;;;;;;6.33;5.17;;;25.10;47.00;;;;;;5081689;28;20810;-80
2021/07/26 08:17:14;;;;;;;4.50;4.00;;;25.10;46.30;;;;;;5082997;28;20456;-80
2021/07/26 08:19:41;;;;;;;4.13;3.73;;;25.10;47.30;;;;;;5082838;28;20485;-80
2021/07/26 08:22:08;;;;;;;4.47;3.73;;;25.30;46.70;;;;;;5079113;28;20491;-80
2021/07/26 08:24:35;;;;;;;3.57;3.27;;;25.40;45.40;;;;;;5077844;28;20450;-79
2021/07/26 08:27:02;;;;;;;5.60;3.83;;;25.70;45.10;;;;;;5079229;28;20508;-80
2021/07/26 08:29:30;;;;;;;5.67;3.70;;;26.00;44.20;;;;;;5078628;28;20482;-79
2021/07/26 08:31:57;;;;;;;4.60;3.60;;;26.20;44.30;;;;;;5086524;28;20478;-80
2021/07/26 08:34:24;;;;;;;4.83;3.70;;;26.30;43.90;;;;;;5087808;28;20573;-82
2021/07/26 08:36:55;;;;;;;6.23;3.50;;;26.40;42.70;;;;;;5087792;28;20467;-81
2021/07/26 08:39:21;;;;;;;4.53;3.90;;;26.30;44.40;;;;;;5090814;28;20476;-80
2021/07/26 08:41:49;;;;;;;4.33;3.37;;;26.40;42.80;;;;;;5089895;28;20436;-80
2021/07/26 08:44:16;;;;;;;3.93;3.63;;;26.80;42.30;;;;;;5096243;28;20501;-82
2021/07/26 08:46:45;;;;;;;5.50;3.80;;;27.10;41.30;;;;;;5094487;28;20422;-80
2021/07/26 08:49:14;;;;;;;4.20;3.80;;;27.40;40.00;;;;;;5100157;28;20461;-82
2021/07/26 08:51:43;;;;;;;4.60;3.57;;;27.60;38.80;;;;;;5101887;28;20439;-82
2021/07/26 08:54:13;;;;;;;5.80;3.57;;;27.70;38.80;;;;;;5086087;28;20553;-81
2021/07/26 08:56:41;;;;;;;3.83;3.47;;;27.80;38.80;;;;;;5100125;28;20410;-82
2021/07/26 08:59:08;;;;;;;3.90;3.50;;;27.70;38.00;;;;;;5097528;28;20475;-81
2021/07/26 09:01:42;;;;;;;5.20;3.37;;;27.40;38.50;;;;;;5082314;28;20419;-80
2021/07/26 09:04:11;;;;;;;5.73;3.37;;;27.20;38.30;;;;;;5088844;28;20414;-80
2021/07/26 09:06:38;;;;;;;5.73;3.70;;;27.20;39.10;;;;;;5087423;28;20459;-81
2021/07/26 09:09:06;;;;;;;4.40;3.17;;;27.40;37.40;;;;;;5092787;28;20504;-80
2021/07/26 09:11:44;;;;;;;3.60;3.30;;;27.20;38.40;;;;;;5092168;28;20441;-80
2021/07/26 09:14:11;;;;;;;3.80;3.27;;;27.00;38.60;;;;;;5081477;28;20796;-80
2021/07/26 09:16:38;;;;;;;3.93;3.53;;;27.10;38.80;;;;;;5083619;28;20430;-80
2021/07/26 09:19:08;;;;;;;3.60;3.30;;;26.80;38.50;;;;;;5086593;28;20499;-79
2021/07/26 09:21:55;;;;;;;4.00;3.70;;;26.70;40.10;;;;;;5086563;28;20490;-80
2021/07/26 09:24:26;;;;;;;4.17;3.77;;;26.70;40.30;;;;;;5084809;28;20525;-79
2021/07/26 09:26:53;;;;;;;3.43;3.13;;;26.60;40.70;;;;;;5081521;28;20474;-79
2021/07/26 09:29:26;;;;;;;3.87;3.50;;;26.60;39.40;;;;;;5079772;28;20454;-79
2021/07/26 09:31:59;;;;;;;4.73;3.90;;;26.80;37.10;;;;;;5078070;28;20446;-79
2021/07/26 09:34:27;;;;;;;5.13;3.83;;;26.80;39.30;;;;;;5078168;28;20458;-80
2021/07/26 09:36:55;;;;;;;3.47;3.17;;;27.00;38.60;;;;;;5078490;28;20490;-80
2021/07/26 09:39:28;;;;;;;4.53;4.13;;;27.20;37.70;;;;;;5077578;28;20562;-80
2021/07/26 09:41:58;;;;;;;4.53;3.53;;;27.20;37.80;;;;;;5078689;28;20527;-79
2021/07/26 09:44:26;;;;;;;4.17;3.73;;;27.20;38.70;;;;;;5078596;28;20547;-79
2021/07/26 09:46:54;;;;;;;4.07;3.77;;;27.20;39.20;;;;;;5077875;28;20961;-80
2021/07/26 09:49:22;;;;;;;4.07;3.57;;;27.30;38.70;;;;;;5078700;28;20493;-79
2021/07/26 09:52:08;;;;;;;4.17;3.70;;;27.00;38.20;;;;;;5078510;28;20939;-80
2021/07/26 09:54:43;;;;;;;4.27;3.87;;;26.90;39.30;;;;;;5078462;28;20479;-79
2021/07/26 09:57:20;;;;;;;4.10;3.33;;;26.90;39.40;;;;;;5087625;28;20432;-80
2021/07/26 09:59:48;;;;;;;5.90;3.70;;;27.20;37.50;;;;;;5091890;28;20418;-81
2021/07/26 10:02:16;;;;;;;5.00;3.17;;;27.50;38.10;;;;;;5098750;28;20443;-80
2021/07/26 10:04:44;;;;;;;4.00;3.70;;;27.70;37.40;;;;;;5098219;28;20423;-81
2021/07/26 10:07:13;;;;;;;4.07;3.57;;;27.80;37.10;;;;;;5094219;28;20423;-81
2021/07/26 10:09:42;;;;;;;5.37;3.90;;;27.80;36.40;;;;;;5089113;28;20475;-81
2021/07/26 10:12:11;;;;;;;3.67;3.37;;;27.30;38.10;;;;;;5084765;28;20807;-80
2021/07/26 10:14:40;;;;;;;4.30;3.90;;;27.30;38.30;;;;;;5083688;28;20465;-81
2021/07/26 10:17:08;;;;;;;4.17;3.77;;;27.50;37.60;;;;;;5082911;28;20466;-80
2021/07/26 10:19:35;;;;;;;3.60;3.23;;;27.40;37.10;;;;;;5083859;28;20545;-82
2021/07/26 10:22:04;;;;;;;4.87;3.83;;;27.30;37.70;;;;;;5084233;28;20486;-81
2021/07/26 10:24:41;;;;;;;4.57;3.50;;;27.30;37.40;;;;;;5083733;28;20435;-82
2021/07/26 10:27:14;;;;;;;5.83;4.00;;;27.30;37.40;;;;;;5084974;28;20460;-80
2021/07/26 10:29:51;;;;;;;3.57;3.27;;;27.30;37.70;;;;;;5086300;28;20462;-81
2021/07/26 10:32:38;;;;;;;4.90;3.50;;;27.50;37.60;;;;;;5085984;28;20456;-81
2021/07/26 10:35:21;;;;;;;3.60;3.03;;;27.70;37.00;;;;;;5089684;28;20486;-81
2021/07/26 10:37:49;;;;;;;9.57;3.47;;;27.90;35.20;;;;;;5092126;28;20468;-82
2021/07/26 10:40:21;;;;;;;3.20;3.00;;;28.10;35.30;;;;;;5096922;28;20430;-84
2021/07/26 10:42:49;;;;;;;3.67;3.20;;;28.30;35.50;;;;;;5098300;28;20415;-81
2021/07/26 10:46:00;;;;;;;3.90;3.60;;;28.60;35.70;;;;;;5097543;28;20926;-81
2021/07/26 10:48:37;;;;;;;8.00;3.27;;;28.80;34.80;;;;;;5094695;28;20451;-81
2021/07/26 10:51:43;;;;;;;4.33;3.60;;;28.90;34.50;;;;;;5094691;28;20424;-82
2021/07/26 10:54:10;;;;;;;3.00;2.80;;;29.00;33.40;;;;;;5091325;28;20441;-81
2021/07/26 10:57:14;;;;;;;6.97;3.43;;;28.80;33.60;;;;;;5083695;28;20489;-80
2021/07/26 11:00:18;;;;;;;5.07;3.23;;;28.50;33.90;;;;;;5081883;28;20471;-80
2021/07/26 11:02:46;;;;;;;3.10;2.90;;;28.80;33.30;;;;;;5086102;28;20447;-80
2021/07/26 11:05:32;;;;;;;5.47;3.33;;;28.90;32.60;;;;;;5092465;28;20801;-81
2021/07/26 11:08:29;;;;;;;3.53;3.17;;;28.70;33.50;;;;;;5083765;28;20476;-82
2021/07/26 11:10:58;;;;;;;4.00;3.20;;;28.40;34.00;;;;;;5087354;28;20456;-82
2021/07/26 11:14:04;;;;;;;5.20;3.60;;;28.30;35.50;;;;;;5092648;28;20436;-81
2021/07/26 11:17:02;;;;;;;3.50;3.30;;;28.30;35.50;;;;;;5094848;28;20522;-81
2021/07/26 11:19:37;;;;;;;4.03;3.73;;;28.20;35.40;;;;;;5092063;28;20456;-81
2021/07/26 11:22:07;;;;;;;5.13;3.67;;;27.60;35.00;;;;;;5088141;28;20418;-80
2021/07/26 11:24:47;;;;;;;5.03;3.30;;;27.30;35.60;;;;;;5085929;28;20456;-82
2021/07/26 11:27:15;;;;;;;3.20;2.93;;;27.40;34.80;;;;;;5087555;28;20451;-82
2021/07/26 11:29:45;;;;;;;2.90;2.67;;;27.60;35.00;;;;;;5133729;22;20506;-87
2021/07/26 11:32:19;;;;;;;3.47;3.17;;;27.90;35.20;;;;;;5093157;28;20456;-81
2021/07/26 11:34:46;;;;;;;3.60;3.30;;;27.70;34.70;;;;;;5083596;28;20422;-81
2021/07/26 11:37:15;;;;;;;3.73;3.40;;;27.60;35.00;;;;;;5085362;28;20924;-82
2021/07/26 11:39:46;;;;;;;3.53;3.23;;;27.50;34.90;;;;;;5082781;28;20454;-85
2021/07/26 11:42:15;;;;;;;3.93;3.40;;;27.60;35.00;;;;;;5084538;28;20543;-81
2021/07/26 11:44:45;;;;;;;3.30;3.00;;;27.60;33.30;;;;;;5083545;28;20476;-82
2021/07/26 11:47:13;;;;;;;3.40;3.10;;;27.20;34.70;;;;;;5084451;28;20433;-82
2021/07/26 11:49:47;;;;;;;5.80;3.50;;;27.40;34.80;;;;;;5090149;28;20458;-83
2021/07/26 11:52:15;;;;;;;4.47;3.97;;;28.00;35.30;;;;;;5083115;28;20427;-82
2021/07/26 11:54:42;;;;;;;4.73;3.17;;;28.20;34.00;;;;;;5086011;28;20460;-80
2021/07/26 11:57:10;;;;;;;3.97;3.23;;;28.10;33.50;;;;;;5085146;28;20567;-81
2021/07/26 11:59:39;;;;;;;5.40;3.70;;;27.80;35.10;;;;;;5083703;28;20468;-82
2021/07/26 12:02:10;;;;;;;11.83;4.00;;;28.20;33.90;;;;;;5083984;28;20461;-82
2021/07/26 12:04:37;;;;;;;3.73;3.43;;;28.40;32.50;;;;;;5086237;28;20422;-82
2021/07/26 12:07:06;;;;;;;3.40;3.10;;;28.50;33.00;;;;;;5084179;28;20513;-82
2021/07/26 12:09:35;;;;;;;3.70;3.30;;;29.00;31.60;;;;;;5086663;28;20484;-83
2021/07/26 12:12:13;;;;;;;4.87;3.50;;;28.60;32.10;;;;;;5083946;28;20539;-83
2021/07/26 12:14:41;;;;;;;3.33;3.03;;;28.30;33.10;;;;;;5086436;28;20454;-82
2021/07/26 12:17:10;;;;;;;4.20;3.73;;;28.20;33.90;;;;;;5085492;28;20595;-84
2021/07/26 12:19:39;;;;;;;4.40;4.00;;;27.80;35.10;;;;;;5084696;28;20446;-82
2021/07/26 12:22:24;;;;;;;6.73;3.43;;;27.40;35.70;;;;;;5085101;28;20456;-83
2021/07/26 12:24:58;;;;;;;5.10;3.47;;;27.20;36.80;;;;;;5085452;28;20913;-81
2021/07/26 12:27:33;;;;;;;5.87;3.93;;;27.10;37.00;;;;;;5086624;28;20776;-81
2021/07/26 12:30:02;;;;;;;4.57;4.03;;;26.80;37.30;;;;;;5090711;28;21012;-82
2021/07/26 12:32:33;;;;;;;4.37;3.90;;;26.60;37.00;;;;;;5083316;28;20799;-83
2021/07/26 12:35:26;;;;;;;4.50;3.90;;;26.20;40.30;;;;;;5088972;28;20459;-83
2021/07/26 12:38:09;;;;;;;4.60;3.93;;;25.70;44.00;;;;;;5094142;28;20461;-81
2021/07/26 12:40:38;;;;;;;4.30;3.90;;;25.20;47.50;;;;;;5086680;28;20482;-82
2021/07/26 12:43:10;;;;;;;6.83;4.10;;;24.90;50.40;;;;;;5078887;28;20480;-81
2021/07/26 12:45:38;;;;;;;5.40;4.00;;;24.70;53.00;;;;;;5079992;28;20498;-81
2021/07/26 12:48:12;;;;;;;4.03;3.73;;;24.90;53.40;;;;;;5078253;28;20452;-80
2021/07/26 12:50:40;;;;;;;35.30;7.90;;;24.90;50.50;;;;;;5078568;28;20515;-81
2021/07/26 12:53:09;;;;;;;4.70;3.97;;;24.80;50.90;;;;;;5081876;28;20457;-82
2021/07/26 12:55:36;;;;;;;4.93;4.23;;;24.90;50.30;;;;;;5080023;28;20478;-79
2021/07/26 12:58:03;;;;;;;8.23;4.00;;;24.60;50.30;;;;;;5079453;28;20502;-82
2021/07/26 13:00:30;;;;;;;4.17;3.83;;;24.80;50.10;;;;;;5079895;28;20550;-80
2021/07/26 13:02:58;;;;;;;5.67;4.00;;;25.00;48.80;;;;;;5079921;28;20440;-82